Terminal Aerodrome Forecast
Issued by NWS

Home | Current Version | Previous Version | Text Only | Print | Product List | Glossary On
Versions: 1 2 3 4 5 6 7 8 9 10 11 12 13 14 15 16 17 18 19 20 21 22 23 24 25 26 27 28 29 30
000
FTUS41 KOKX 102328
TAFGON
TAF
KGON 102328Z 1100/1124 27009G15KT P6SM BKN050
     FM110600 26011G17KT P6SM -SHSN SCT030 OVC050
     FM110900 26009G15KT P6SM -SHSN OVC030
     FM111300 27010G16KT P6SM BKN030
     FM111600 28011G17KT P6SM FEW030 SCT250
     FM112200 29007KT P6SM FEW030 SCT250=

USA.gov is the U.S. government's official web portal to all federal, state and local government web resources and services.